sensor_id;sensor_type;location;lat;lon;timestamp;pressure;altitude;pressure_sealevel;temperature;humidity
25130;BME280;13308;50.860;13.664;2023-02-23T06:57:01;96374.16;;;7.34;100.00
25130;BME280;13308;50.860;13.664;2023-02-23T06:59:26;96378.78;;;7.41;100.00
25130;BME280;13308;50.860;13.664;2023-02-23T07:01:52;96374.75;;;7.52;100.00
25130;BME280;13308;50.860;13.664;2023-02-23T07:04:17;96377.03;;;7.57;100.00
25130;BME280;13308;50.860;13.664;2023-02-23T07:06:43;96374.19;;;7.68;100.00
25130;BME280;13308;50.860;13.664;2023-02-23T07:09:08;96386.53;;;7.83;100.00
25130;BME280;13308;50.860;13.664;2023-02-23T07:11:33;96375.84;;;7.92;100.00
25130;BME280;13308;50.860;13.664;2023-02-23T07:13:59;96383.53;;;8.04;100.00
25130;BME280;13308;50.860;13.664;2023-02-23T07:16:26;96375.38;;;8.27;100.00
25130;BME280;13308;50.860;13.664;2023-02-23T07:18:52;96386.19;;;8.41;100.00
25130;BME280;13308;50.860;13.664;2023-02-23T07:21:18;96378.06;;;8.56;100.00
25130;BME280;13308;50.860;13.664;2023-02-23T07:23:44;96392.38;;;8.71;100.00
25130;BME280;13308;50.860;13.664;2023-02-23T07:26:09;96385.53;;;8.82;100.00
25130;BME280;13308;50.860;13.664;2023-02-23T07:28:40;96390.53;;;9.14;100.00
25130;BME280;13308;50.860;13.664;2023-02-23T07:31:06;96389.97;;;9.22;99.83
25130;BME280;13308;50.860;13.664;2023-02-23T07:33:31;96397.50;;;9.41;99.39
25130;BME280;13308;50.860;13.664;2023-02-23T07:35:56;96391.50;;;9.46;98.53
25130;BME280;13308;50.860;13.664;2023-02-23T07:38:22;96398.44;;;9.54;97.77
25130;BME280;13308;50.860;13.664;2023-02-23T07:40:49;96394.16;;;9.73;96.86
25130;BME280;13308;50.860;13.664;2023-02-23T07:43:14;96408.13;;;9.82;96.67
25130;BME280;13308;50.860;13.664;2023-02-23T07:45:40;96395.00;;;9.89;95.94
25130;BME280;13308;50.860;13.664;2023-02-23T07:48:05;96400.44;;;9.93;95.02
25130;BME280;13308;50.860;13.664;2023-02-23T07:50:31;96395.09;;;10.02;94.82
25130;BME280;13308;50.860;13.664;2023-02-23T07:52:56;96395.06;;;10.05;94.08
25130;BME280;13308;50.860;13.664;2023-02-23T07:55:21;96403.56;;;10.14;93.52
25130;BME280;13308;50.860;13.664;2023-02-23T07:57:47;96399.59;;;10.15;93.45
25130;BME280;13308;50.860;13.664;2023-02-23T08:00:13;96399.81;;;10.24;92.87
25130;BME280;13308;50.860;13.664;2023-02-23T08:02:38;96396.72;;;10.38;92.23
25130;BME280;13308;50.860;13.664;2023-02-23T08:05:04;96394.84;;;10.51;92.10
25130;BME280;13308;50.860;13.664;2023-02-23T08:07:32;96400.53;;;10.44;92.29
25130;BME280;13308;50.860;13.664;2023-02-23T08:09:58;96402.78;;;10.49;91.54
25130;BME280;13308;50.860;13.664;2023-02-23T08:12:23;96399.16;;;10.52;91.46
25130;BME280;13308;50.860;13.664;2023-02-23T08:14:49;96403.13;;;10.51;91.14
25130;BME280;13308;50.860;13.664;2023-02-23T08:17:14;96399.16;;;10.52;91.61
25130;BME280;13308;50.860;13.664;2023-02-23T08:19:39;96406.44;;;10.62;90.67
25130;BME280;13308;50.860;13.664;2023-02-23T08:22:05;96411.09;;;10.65;91.61
25130;BME280;13308;50.860;13.664;2023-02-23T08:24:31;96411.88;;;10.66;91.55
25130;BME280;13308;50.860;13.664;2023-02-23T08:26:57;96417.72;;;10.68;91.49
25130;BME280;13308;50.860;13.664;2023-02-23T08:29:22;96416.34;;;10.60;91.20
25130;BME280;13308;50.860;13.664;2023-02-23T08:31:48;96420.84;;;10.70;91.35
25130;BME280;13308;50.860;13.664;2023-02-23T08:34:16;96422.13;;;10.81;90.83
25130;BME280;13308;50.860;13.664;2023-02-23T08:36:41;96430.78;;;10.99;90.09
25130;BME280;13308;50.860;13.664;2023-02-23T08:39:10;96423.22;;;11.19;88.48
25130;BME280;13308;50.860;13.664;2023-02-23T08:41:36;96420.50;;;11.32;87.96
25130;BME280;13308;50.860;13.664;2023-02-23T08:44:02;96418.69;;;11.41;86.83
25130;BME280;13308;50.860;13.664;2023-02-23T08:46:27;96419.56;;;11.54;86.00
25130;BME280;13308;50.860;13.664;2023-02-23T08:48:54;96420.66;;;11.57;86.35
25130;BME280;13308;50.860;13.664;2023-02-23T08:51:19;96416.19;;;11.63;85.75
25130;BME280;13308;50.860;13.664;2023-02-23T08:53:45;96427.31;;;11.59;85.91
25130;BME280;13308;50.860;13.664;2023-02-23T08:56:10;96423.88;;;11.55;86.81
25130;BME280;13308;50.860;13.664;2023-02-23T08:58:37;96424.72;;;11.68;86.23
25130;BME280;13308;50.860;13.664;2023-02-23T09:01:03;96421.19;;;11.68;86.35
25130;BME280;13308;50.860;13.664;2023-02-23T09:03:29;96422.28;;;11.86;85.25
25130;BME280;13308;50.860;13.664;2023-02-23T09:05:57;96424.72;;;11.84;85.18
25130;BME280;13308;50.860;13.664;2023-02-23T09:08:22;96421.97;;;11.97;84.89
25130;BME280;13308;50.860;13.664;2023-02-23T09:10:48;96426.06;;;11.92;85.65
25130;BME280;13308;50.860;13.664;2023-02-23T09:13:13;96428.94;;;12.01;85.74
25130;BME280;13308;50.860;13.664;2023-02-23T09:15:40;96416.72;;;12.15;85.88
25130;BME280;13308;50.860;13.664;2023-02-23T09:18:06;96417.88;;;12.42;84.78
25130;BME280;13308;50.860;13.664;2023-02-23T09:20:32;96418.59;;;12.71;84.32
25130;BME280;13308;50.860;13.664;2023-02-23T09:22:58;96422.03;;;13.25;81.03
25130;BME280;13308;50.860;13.664;2023-02-23T09:25:24;96425.28;;;13.70;77.40
25130;BME280;13308;50.860;13.664;2023-02-23T09:27:52;96437.00;;;14.08;76.69
25130;BME280;13308;50.860;13.664;2023-02-23T09:30:19;96432.53;;;14.45;74.10
25130;BME280;13308;50.860;13.664;2023-02-23T09:32:52;96431.69;;;14.35;73.60
25130;BME280;13308;50.860;13.664;2023-02-23T09:35:20;96431.44;;;14.21;75.38
25130;BME280;13308;50.860;13.664;2023-02-23T09:37:47;96425.88;;;14.42;75.62
25130;BME280;13308;50.860;13.664;2023-02-23T09:40:15;96446.31;;;14.57;72.45
25130;BME280;13308;50.860;13.664;2023-02-23T09:42:52;96445.88;;;14.37;73.89
25130;BME280;13308;50.860;13.664;2023-02-23T09:45:38;96443.50;;;14.27;74.80
25130;BME280;13308;50.860;13.664;2023-02-23T09:48:07;96439.63;;;14.24;75.01
25130;BME280;13308;50.860;13.664;2023-02-23T09:50:36;96444.75;;;14.13;75.04
25130;BME280;13308;50.860;13.664;2023-02-23T09:55:56;96440.97;;;14.20;75.64
25130;BME280;13308;50.860;13.664;2023-02-23T09:58:25;96434.50;;;14.44;74.25
25130;BME280;13308;50.860;13.664;2023-02-23T10:01:21;96440.94;;;14.84;72.30
25130;BME280;13308;50.860;13.664;2023-02-23T10:04:02;96438.47;;;14.86;71.52
25130;BME280;13308;50.860;13.664;2023-02-23T10:06:31;96441.66;;;15.06;71.72
25130;BME280;13308;50.860;13.664;2023-02-23T10:09:27;96447.13;;;15.28;69.86
25130;BME280;13308;50.860;13.664;2023-02-23T10:12:09;96442.25;;;15.01;72.56
25130;BME280;13308;50.860;13.664;2023-02-23T10:14:57;96448.03;;;14.85;72.25
25130;BME280;13308;50.860;13.664;2023-02-23T10:17:49;96444.50;;;14.85;72.73
25130;BME280;13308;50.860;13.664;2023-02-23T10:20:26;96432.28;;;15.61;67.89
25130;BME280;13308;50.860;13.664;2023-02-23T10:22:56;96439.09;;;15.78;68.50
25130;BME280;13308;50.860;13.664;2023-02-23T10:25:29;96425.34;;;16.20;66.72
25130;BME280;13308;50.860;13.664;2023-02-23T10:27:56;96427.22;;;16.50;64.27
25130;BME280;13308;50.860;13.664;2023-02-23T10:30:31;96438.66;;;16.70;63.90
25130;BME280;13308;50.860;13.664;2023-02-23T10:33:13;96423.94;;;16.78;68.01
25130;BME280;13308;50.860;13.664;2023-02-23T10:35:40;96430.09;;;16.82;65.81
25130;BME280;13308;50.860;13.664;2023-02-23T10:38:12;96437.16;;;17.34;61.86
25130;BME280;13308;50.860;13.664;2023-02-23T10:40:39;96434.78;;;17.18;63.41
25130;BME280;13308;50.860;13.664;2023-02-23T10:43:05;96432.72;;;17.27;60.35
25130;BME280;13308;50.860;13.664;2023-02-23T10:45:36;96421.94;;;16.70;62.28
25130;BME280;13308;50.860;13.664;2023-02-23T10:48:07;96422.50;;;16.83;62.90
25130;BME280;13308;50.860;13.664;2023-02-23T10:50:36;96422.69;;;16.70;62.82
25130;BME280;13308;50.860;13.664;2023-02-23T10:53:27;96431.22;;;16.67;63.15
25130;BME280;13308;50.860;13.664;2023-02-23T10:56:17;96421.00;;;17.14;60.66
25130;BME280;13308;50.860;13.664;2023-02-23T11:01:11;96414.53;;;17.08;61.77
25130;BME280;13308;50.860;13.664;2023-02-23T11:03:43;96414.22;;;17.06;60.09
25130;BME280;13308;50.860;13.664;2023-02-23T11:06:31;96413.16;;;17.36;60.72
25130;BME280;13308;50.860;13.664;2023-02-23T11:08:57;96417.66;;;17.90;57.37
25130;BME280;13308;50.860;13.664;2023-02-23T11:11:25;96416.63;;;17.78;58.99
25130;BME280;13308;50.860;13.664;2023-02-23T11:13:53;96416.03;;;18.21;58.99
25130;BME280;13308;50.860;13.664;2023-02-23T11:16:24;96422.09;;;18.20;58.64
25130;BME280;13308;50.860;13.664;2023-02-23T11:18:55;96408.38;;;18.07;58.90
25130;BME280;13308;50.860;13.664;2023-02-23T11:21:37;96404.59;;;17.96;59.01
25130;BME280;13308;50.860;13.664;2023-02-23T11:24:36;96403.38;;;18.49;57.24
25130;BME280;13308;50.860;13.664;2023-02-23T11:27:09;96401.56;;;18.23;57.92
25130;BME280;13308;50.860;13.664;2023-02-23T11:29:44;96392.22;;;17.88;58.29
25130;BME280;13308;50.860;13.664;2023-02-23T11:32:25;96397.91;;;18.17;59.44
25130;BME280;13308;50.860;13.664;2023-02-23T11:35:26;96377.34;;;17.67;57.12
25130;BME280;13308;50.860;13.664;2023-02-23T11:37:52;96381.25;;;17.84;58.06
25130;BME280;13308;50.860;13.664;2023-02-23T11:40:27;96383.09;;;18.25;56.63
25130;BME280;13308;50.860;13.664;2023-02-23T11:45:30;96376.06;;;17.54;57.46
25130;BME280;13308;50.860;13.664;2023-02-23T11:47:57;96379.38;;;17.43;57.94
25130;BME280;13308;50.860;13.664;2023-02-23T11:50:28;96375.91;;;17.95;58.14
25130;BME280;13308;50.860;13.664;2023-02-23T11:52:59;96386.44;;;18.15;58.17
25130;BME280;13308;50.860;13.664;2023-02-23T11:55:27;96367.91;;;17.88;58.96
25130;BME280;13308;50.860;13.664;2023-02-23T11:58:06;96374.59;;;18.05;58.35
25130;BME280;13308;50.860;13.664;2023-02-23T12:00:32;96380.25;;;18.34;57.98
25130;BME280;13308;50.860;13.664;2023-02-23T12:02:59;96372.66;;;18.49;58.84
25130;BME280;13308;50.860;13.664;2023-02-23T12:05:29;96370.97;;;18.28;56.67
25130;BME280;13308;50.860;13.664;2023-02-23T12:08:17;96369.22;;;18.16;58.45
25130;BME280;13308;50.860;13.664;2023-02-23T12:10:52;96365.56;;;18.10;57.86
25130;BME280;13308;50.860;13.664;2023-02-23T12:13:39;96362.09;;;18.15;57.03
25130;BME280;13308;50.860;13.664;2023-02-23T12:16:11;96361.78;;;18.37;56.63
25130;BME280;13308;50.860;13.664;2023-02-23T12:23:43;96359.88;;;18.19;56.93
25130;BME280;13308;50.860;13.664;2023-02-23T12:26:14;96356.88;;;18.46;57.93
25130;BME280;13308;50.860;13.664;2023-02-23T12:29:12;96355.16;;;18.11;57.92
25130;BME280;13308;50.860;13.664;2023-02-23T12:31:46;96360.81;;;18.40;57.26
25130;BME280;13308;50.860;13.664;2023-02-23T12:34:21;96348.09;;;18.39;57.40
25130;BME280;13308;50.860;13.664;2023-02-23T12:36:58;96354.53;;;18.88;57.07
25130;BME280;13308;50.860;13.664;2023-02-23T12:39:32;96349.56;;;19.46;57.05
25130;BME280;13308;50.860;13.664;2023-02-23T12:45:02;96349.78;;;19.63;54.34
25130;BME280;13308;50.860;13.664;2023-02-23T12:47:33;96348.16;;;19.36;54.13
25130;BME280;13308;50.860;13.664;2023-02-23T12:50:09;96333.84;;;19.49;55.23
25130;BME280;13308;50.860;13.664;2023-02-23T12:52:52;96333.81;;;18.80;56.73
25130;BME280;13308;50.860;13.664;2023-02-23T12:55:38;96330.00;;;18.63;57.89
25130;BME280;13308;50.860;13.664;2023-02-23T12:58:27;96330.34;;;18.42;59.54
25130;BME280;13308;50.860;13.664;2023-02-23T13:03:38;96325.41;;;17.70;61.88
25130;BME280;13308;50.860;13.664;2023-02-23T13:09:02;96322.50;;;17.17;63.56
25130;BME280;13308;50.860;13.664;2023-02-23T13:12:00;96331.03;;;17.14;64.45
25130;BME280;13308;50.860;13.664;2023-02-23T13:14:38;96324.91;;;16.68;67.21
25130;BME280;13308;50.860;13.664;2023-02-23T13:20:00;96315.78;;;16.08;69.01
25130;BME280;13308;50.860;13.664;2023-02-23T13:22:54;96313.94;;;15.87;71.44
25130;BME280;13308;50.860;13.664;2023-02-23T13:25:30;96304.38;;;15.70;72.06
25130;BME280;13308;50.860;13.664;2023-02-23T13:28:01;96312.09;;;15.84;71.27
25130;BME280;13308;50.860;13.664;2023-02-23T13:30:29;96308.09;;;15.67;71.90
25130;BME280;13308;50.860;13.664;2023-02-23T13:33:03;96308.41;;;15.42;74.29
25130;BME280;13308;50.860;13.664;2023-02-23T13:35:36;96300.38;;;15.62;72.03
25130;BME280;13308;50.860;13.664;2023-02-23T13:38:10;96308.41;;;15.42;72.83
25130;BME280;13308;50.860;13.664;2023-02-23T13:40:51;96309.56;;;15.23;73.93
25130;BME280;13308;50.860;13.664;2023-02-23T13:43:47;96306.75;;;15.05;74.64
25130;BME280;13308;50.860;13.664;2023-02-23T13:46:18;96309.38;;;15.00;75.92
25130;BME280;13308;50.860;13.664;2023-02-23T13:49:01;96307.66;;;14.93;76.43
25130;BME280;13308;50.860;13.664;2023-02-23T13:51:43;96308.22;;;14.70;77.35
25130;BME280;13308;50.860;13.664;2023-02-23T13:56:48;96310.31;;;14.57;77.58
25130;BME280;13308;50.860;13.664;2023-02-23T13:59:21;96312.47;;;14.23;79.84
25130;BME280;13308;50.860;13.664;2023-02-23T14:01:49;96309.78;;;14.10;81.21
25130;BME280;13308;50.860;13.664;2023-02-23T14:04:28;96312.47;;;14.01;81.30
25130;BME280;13308;50.860;13.664;2023-02-23T14:07:13;96310.53;;;13.89;82.58
25130;BME280;13308;50.860;13.664;2023-02-23T14:10:06;96310.94;;;13.79;82.76
25130;BME280;13308;50.860;13.664;2023-02-23T14:12:40;96313.97;;;13.72;82.46
25130;BME280;13308;50.860;13.664;2023-02-23T14:17:55;96307.19;;;13.51;83.58
25130;BME280;13308;50.860;13.664;2023-02-23T14:20:37;96306.22;;;13.45;84.46
25130;BME280;13308;50.860;13.664;2023-02-23T14:31:02;96304.75;;;13.19;86.27
25130;BME280;13308;50.860;13.664;2023-02-23T14:36:00;96299.03;;;13.01;88.22
25130;BME280;13308;50.860;13.664;2023-02-23T14:38:32;96303.16;;;12.97;88.95
25130;BME280;13308;50.860;13.664;2023-02-23T14:41:00;96305.47;;;12.98;88.24
25130;BME280;13308;50.860;13.664;2023-02-23T14:46:03;96301.22;;;12.94;89.02
25130;BME280;13308;50.860;13.664;2023-02-23T14:48:33;96297.47;;;12.88;90.57
25130;BME280;13308;50.860;13.664;2023-02-23T14:51:40;96292.06;;;12.84;92.09
25130;BME280;13308;50.860;13.664;2023-02-23T14:54:26;96298.50;;;12.81;94.26
25130;BME280;13308;50.860;13.664;2023-02-23T14:56:55;96304.72;;;12.73;97.74
25130;BME280;13308;50.860;13.664;2023-02-23T14:59:39;96294.31;;;12.64;98.98
25130;BME280;13308;50.860;13.664;2023-02-23T15:02:17;96291.44;;;12.55;100.00
25130;BME280;13308;50.860;13.664;2023-02-23T15:04:43;96296.00;;;12.37;100.00
25130;BME280;13308;50.860;13.664;2023-02-23T15:07:14;96304.03;;;12.06;100.00
25130;BME280;13308;50.860;13.664;2023-02-23T15:09:43;96299.63;;;11.96;100.00
25130;BME280;13308;50.860;13.664;2023-02-23T15:12:33;96301.25;;;11.94;100.00
25130;BME280;13308;50.860;13.664;2023-02-23T15:15:01;96293.47;;;11.76;100.00
25130;BME280;13308;50.860;13.664;2023-02-23T15:17:29;96299.91;;;11.57;100.00
25130;BME280;13308;50.860;13.664;2023-02-23T15:20:07;96302.19;;;11.46;100.00
25130;BME280;13308;50.860;13.664;2023-02-23T15:22:38;96296.13;;;11.51;100.00
25130;BME280;13308;50.860;13.664;2023-02-23T15:25:14;96302.19;;;11.46;100.00
25130;BME280;13308;50.860;13.664;2023-02-23T15:27:59;96296.78;;;11.43;100.00
25130;BME280;13308;50.860;13.664;2023-02-23T15:31:09;96293.19;;;11.58;100.00
25130;BME280;13308;50.860;13.664;2023-02-23T15:33:36;96297.69;;;11.52;100.00
25130;BME280;13308;50.860;13.664;2023-02-23T15:36:05;96304.19;;;11.46;100.00
25130;BME280;13308;50.860;13.664;2023-02-23T15:38:34;96299.13;;;11.28;100.00
25130;BME280;13308;50.860;13.664;2023-02-23T15:41:05;96289.25;;;11.15;100.00
25130;BME280;13308;50.860;13.664;2023-02-23T15:43:32;96290.41;;;11.01;100.00
25130;BME280;13308;50.860;13.664;2023-02-23T15:46:01;96288.94;;;10.97;100.00
25130;BME280;13308;50.860;13.664;2023-02-23T15:48:43;96290.75;;;11.03;100.00
25130;BME280;13308;50.860;13.664;2023-02-23T15:51:31;96292.97;;;11.08;100.00
25130;BME280;13308;50.860;13.664;2023-02-23T15:53:59;96293.22;;;11.14;100.00
25130;BME280;13308;50.860;13.664;2023-02-23T15:56:27;96295.53;;;10.87;100.00
25130;BME280;13308;50.860;13.664;2023-02-23T15:58:56;96290.41;;;11.01;100.00
25130;BME280;13308;50.860;13.664;2023-02-23T16:01:25;96284.03;;;10.88;100.00
25130;BME280;13308;50.860;13.664;2023-02-23T16:04:15;96291.66;;;10.84;100.00
25130;BME280;13308;50.860;13.664;2023-02-23T16:06:50;96296.47;;;10.80;100.00
25130;BME280;13308;50.860;13.664;2023-02-23T16:12:08;96289.59;;;10.72;100.00
25130;BME280;13308;50.860;13.664;2023-02-23T16:14:54;96289.81;;;10.78;100.00
25130;BME280;13308;50.860;13.664;2023-02-23T16:17:34;96288.38;;;10.57;100.00
25130;BME280;13308;50.860;13.664;2023-02-23T16:20:24;96290.44;;;10.37;100.00
25130;BME280;13308;50.860;13.664;2023-02-23T16:22:54;96289.91;;;10.26;100.00
25130;BME280;13308;50.860;13.664;2023-02-23T16:25:24;96292.81;;;10.19;100.00
25130;BME280;13308;50.860;13.664;2023-02-23T16:28:04;96294.88;;;10.15;100.00
25130;BME280;13308;50.860;13.664;2023-02-23T16:35:44;96289.19;;;10.22;100.00
25130;BME280;13308;50.860;13.664;2023-02-23T16:38:13;96286.28;;;10.13;100.00
25130;BME280;13308;50.860;13.664;2023-02-23T16:40:42;96287.50;;;9.93;100.00
25130;BME280;13308;50.860;13.664;2023-02-23T16:43:09;96284.81;;;9.89;100.00
25130;BME280;13308;50.860;13.664;2023-02-23T16:45:35;96283.53;;;9.94;100.00
25130;BME280;13308;50.860;13.664;2023-02-23T16:48:02;96278.09;;;9.90;100.00
25130;BME280;13308;50.860;13.664;2023-02-23T16:50:28;96281.84;;;9.80;100.00
25130;BME280;13308;50.860;13.664;2023-02-23T16:52:54;96277.47;;;9.83;100.00
25130;BME280;13308;50.860;13.664;2023-02-23T16:55:24;96286.31;;;9.74;100.00
25130;BME280;13308;50.860;13.664;2023-02-23T16:57:53;96285.97;;;9.72;100.00
25130;BME280;13308;50.860;13.664;2023-02-23T17:00:30;96279.75;;;9.68;100.00
25130;BME280;13308;50.860;13.664;2023-02-23T17:02:56;96283.22;;;9.72;100.00
25130;BME280;13308;50.860;13.664;2023-02-23T17:05:25;96280.66;;;9.81;100.00
25130;BME280;13308;50.860;13.664;2023-02-23T17:07:51;96282.44;;;9.72;100.00
25130;BME280;13308;50.860;13.664;2023-02-23T17:10:33;96283.06;;;9.79;100.00
25130;BME280;13308;50.860;13.664;2023-02-23T17:13:16;96289.94;;;9.71;100.00
25130;BME280;13308;50.860;13.664;2023-02-23T17:15:43;96296.75;;;9.63;100.00
25130;BME280;13308;50.860;13.664;2023-02-23T17:18:17;96285.41;;;9.61;100.00
25130;BME280;13308;50.860;13.664;2023-02-23T17:20:43;96283.63;;;9.51;100.00
25130;BME280;13308;50.860;13.664;2023-02-23T17:23:09;96286.75;;;9.53;100.00
25130;BME280;13308;50.860;13.664;2023-02-23T17:25:34;96283.72;;;9.48;100.00
25130;BME280;13308;50.860;13.664;2023-02-23T17:28:00;96294.81;;;9.44;100.00
25130;BME280;13308;50.860;13.664;2023-02-23T17:30:26;96289.28;;;9.44;100.00
25130;BME280;13308;50.860;13.664;2023-02-23T17:32:54;96291.78;;;9.39;100.00
25130;BME280;13308;50.860;13.664;2023-02-23T17:35:20;96292.53;;;9.39;100.00
25130;BME280;13308;50.860;13.664;2023-02-23T17:37:46;96289.28;;;9.44;100.00
25130;BME280;13308;50.860;13.664;2023-02-23T17:40:14;96296.63;;;9.31;100.00
25130;BME280;13308;50.860;13.664;2023-02-23T17:42:41;96297.44;;;9.32;100.00
25130;BME280;13308;50.860;13.664;2023-02-23T17:45:07;96304.63;;;9.26;100.00
25130;BME280;13308;50.860;13.664;2023-02-23T17:47:34;96301.94;;;9.22;100.00
25130;BME280;13308;50.860;13.664;2023-02-23T17:50:00;96301.41;;;9.27;100.00
25130;BME280;13308;50.860;13.664;2023-02-23T17:52:26;96301.06;;;9.25;100.00
25130;BME280;13308;50.860;13.664;2023-02-23T17:54:52;96303.00;;;9.28;100.00
25130;BME280;13308;50.860;13.664;2023-02-23T17:57:20;96296.34;;;9.45;100.00
25130;BME280;13308;50.860;13.664;2023-02-23T17:59:45;96304.59;;;9.45;100.00
25130;BME280;13308;50.860;13.664;2023-02-23T18:02:17;96291.84;;;9.35;100.00
25130;BME280;13308;50.860;13.664;2023-02-23T18:04:45;96285.97;;;9.14;100.00
25130;BME280;13308;50.860;13.664;2023-02-23T18:07:10;96283.00;;;9.05;100.00
25130;BME280;13308;50.860;13.664;2023-02-23T18:09:36;96284.75;;;8.95;100.00
25130;BME280;13308;50.860;13.664;2023-02-23T18:12:01;96289.53;;;8.91;100.00
25130;BME280;13308;50.860;13.664;2023-02-23T18:14:27;96296.22;;;8.90;100.00
25130;BME280;13308;50.860;13.664;2023-02-23T18:16:52;96292.75;;;8.86;100.00
25130;BME280;13308;50.860;13.664;2023-02-23T18:19:18;96297.56;;;8.82;100.00
25130;BME280;13308;50.860;13.664;2023-02-23T18:21:43;96299.09;;;8.83;100.00
25130;BME280;13308;50.860;13.664;2023-02-23T18:24:09;96292.44;;;9.04;100.00
25130;BME280;13308;50.860;13.664;2023-02-23T18:26:36;96292.28;;;8.91;100.00
25130;BME280;13308;50.860;13.664;2023-02-23T18:29:02;96299.69;;;8.94;100.00
25130;BME280;13308;50.860;13.664;2023-02-23T18:31:29;96292.34;;;8.88;100.00
25130;BME280;13308;50.860;13.664;2023-02-23T18:33:55;96285.00;;;8.81;100.00
25130;BME280;13308;50.860;13.664;2023-02-23T18:36:34;96294.31;;;8.87;100.00
25130;BME280;13308;50.860;13.664;2023-02-23T18:39:04;96302.19;;;8.85;100.00
25130;BME280;13308;50.860;13.664;2023-02-23T18:41:30;96299.94;;;8.80;100.00
25130;BME280;13308;50.860;13.664;2023-02-23T18:44:04;96303.88;;;8.79;100.00
25130;BME280;13308;50.860;13.664;2023-02-23T18:46:29;96300.72;;;8.81;100.00
25130;BME280;13308;50.860;13.664;2023-02-23T18:48:55;96299.09;;;8.83;100.00
25130;BME280;13308;50.860;13.664;2023-02-23T18:51:22;96290.59;;;8.97;100.00
25130;BME280;13308;50.860;13.664;2023-02-23T18:53:50;96294.31;;;8.87;100.00
25130;BME280;13308;50.860;13.664;2023-02-23T18:56:19;96289.78;;;8.77;100.00
25130;BME280;13308;50.860;13.664;2023-02-23T18:58:48;96294.56;;;8.73;100.00
25130;BME280;13308;50.860;13.664;2023-02-23T19:01:16;96295.75;;;8.72;100.00
25130;BME280;13308;50.860;13.664;2023-02-23T19:03:44;96292.66;;;8.70;100.00
25130;BME280;13308;50.860;13.664;2023-02-23T19:06:10;96286.38;;;8.70;100.00
25130;BME280;13308;50.860;13.664;2023-02-23T19:08:36;96285.16;;;8.71;100.00
25130;BME280;13308;50.860;13.664;2023-02-23T19:11:03;96290.25;;;8.72;100.00
25130;BME280;13308;50.860;13.664;2023-02-23T19:13:28;96288.38;;;8.69;100.00
25130;BME280;13308;50.860;13.664;2023-02-23T19:15:53;96284.41;;;8.70;100.00
25130;BME280;13308;50.860;13.664;2023-02-23T19:18:20;96291.53;;;8.68;100.00
25130;BME280;13308;50.860;13.664;2023-02-23T19:20:45;96287.22;;;8.67;100.00
25130;BME280;13308;50.860;13.664;2023-02-23T19:23:17;96290.78;;;8.64;100.00
25130;BME280;13308;50.860;13.664;2023-02-23T19:25:46;96284.53;;;8.63;100.00
25130;BME280;13308;50.860;13.664;2023-02-23T19:28:12;96292.78;;;8.63;100.00
